Time;durP1;ratioP1;P1;durP2;ratioP2;P2;SDS_P1;SDS_P2;PMS_P1;PMS_P2;Temp;Humidity;BMP_temperature;BMP_pressure;BME280_temperature;BME280_humidity;BME280_pressure;Samples;Min_cycle;Max_cycle;Signal;HPM_P1;HPM_P2
2023/05/17 00:02:12;;;;;;;3.47;1.70;;;9.90;93.60;;;;;;5040827;28;20201;-64
2023/05/17 00:04:37;;;;;;;8.57;2.00;;;9.90;93.80;;;;;;5040169;28;20539;-65
2023/05/17 00:07:03;;;;;;;5.43;2.00;;;9.90;94.60;;;;;;5035736;28;20575;-65
2023/05/17 00:09:28;;;;;;;4.97;1.43;;;9.80;95.20;;;;;;5025494;28;20227;-64
2023/05/17 00:11:54;;;;;;;6.83;2.17;;;9.70;96.10;;;;;;5028420;28;20212;-65
2023/05/17 00:14:19;;;;;;;3.70;2.00;;;9.70;96.20;;;;;;5025655;28;20218;-65
2023/05/17 00:16:45;;;;;;;7.60;1.90;;;9.70;96.90;;;;;;5040210;28;20290;-65
2023/05/17 00:19:10;;;;;;;3.97;1.63;;;9.70;97.10;;;;;;5040458;28;20208;-64
2023/05/17 00:21:36;;;;;;;9.17;2.57;;;9.70;97.70;;;;;;5032565;28;20864;-66
2023/05/17 00:24:02;;;;;;;5.43;2.30;;;9.70;98.50;;;;;;5029479;28;20212;-65
2023/05/17 00:26:27;;;;;;;5.93;2.67;;;9.60;98.60;;;;;;5028079;28;20204;-64
2023/05/17 00:28:53;;;;;;;5.70;2.00;;;9.50;99.40;;;;;;5027966;28;20255;-65
2023/05/17 00:31:18;;;;;;;9.57;2.70;;;9.50;99.80;;;;;;5030328;28;20222;-66
2023/05/17 00:33:45;;;;;;;3.80;2.30;;;9.40;99.90;;;;;;5031239;28;20730;-66
2023/05/17 00:36:10;;;;;;;5.30;2.03;;;9.40;99.90;;;;;;5037087;28;20202;-65
2023/05/17 00:38:36;;;;;;;7.90;2.40;;;9.50;99.90;;;;;;5038171;28;20258;-65
2023/05/17 00:41:01;;;;;;;5.83;2.33;;;9.50;99.90;;;;;;5032400;28;20286;-65
2023/05/17 00:43:27;;;;;;;5.87;2.57;;;9.50;99.90;;;;;;5029813;28;20202;-65
2023/05/17 00:45:52;;;;;;;6.03;3.03;;;9.50;99.90;;;;;;5029248;28;20921;-66
2023/05/17 00:48:24;;;;;;;5.30;2.30;;;9.50;99.90;;;;;;5032844;28;20214;-65
2023/05/17 00:50:50;;;;;;;9.77;2.33;;;9.50;99.90;;;;;;5021017;28;20215;-65
2023/05/17 00:53:16;;;;;;;7.70;2.57;;;9.40;99.90;;;;;;5030261;28;20599;-66
2023/05/17 00:55:43;;;;;;;9.67;3.10;;;9.40;99.90;;;;;;5030084;28;20227;-65
2023/05/17 00:58:12;;;;;;;7.03;2.23;;;9.40;99.90;;;;;;5030200;28;20251;-66
2023/05/17 01:00:38;;;;;;;7.37;2.87;;;9.40;99.90;;;;;;5029709;28;20218;-65
2023/05/17 01:03:04;;;;;;;5.70;2.37;;;9.50;99.90;;;;;;5028710;28;20283;-65
2023/05/17 01:05:30;;;;;;;6.37;3.30;;;9.50;99.90;;;;;;5026457;28;20728;-66
2023/05/17 01:07:55;;;;;;;5.67;2.57;;;9.40;99.90;;;;;;5029317;28;20196;-65
2023/05/17 01:10:32;;;;;;;5.87;2.77;;;9.30;99.90;;;;;;5031794;28;20555;-65
2023/05/17 01:13:07;;;;;;;11.73;2.73;;;9.20;99.90;;;;;;5028312;28;20204;-66
2023/05/17 01:15:37;;;;;;;3.67;2.80;;;9.20;99.90;;;;;;5024748;28;20755;-64
2023/05/17 01:18:42;;;;;;;9.83;3.03;;;9.10;99.90;;;;;;5028192;28;20800;-66
2023/05/17 01:21:21;;;;;;;8.63;3.33;;;9.00;99.90;;;;;;5023519;28;20216;-65
2023/05/17 01:24:14;;;;;;;9.53;2.80;;;8.90;99.90;;;;;;5029193;28;20908;-66
2023/05/17 01:26:46;;;;;;;9.27;2.47;;;8.90;99.90;;;;;;5026651;28;20201;-65
2023/05/17 01:29:13;;;;;;;7.37;3.40;;;8.80;99.90;;;;;;5028232;28;20338;-66
2023/05/17 01:31:39;;;;;;;7.93;2.73;;;8.70;99.90;;;;;;5031085;28;20574;-69
2023/05/17 01:34:11;;;;;;;7.70;3.10;;;8.60;99.90;;;;;;5026291;28;20697;-69
2023/05/17 01:36:37;;;;;;;9.57;2.80;;;8.60;99.90;;;;;;5028714;28;20206;-69
2023/05/17 01:39:02;;;;;;;6.03;3.33;;;8.60;99.90;;;;;;5026472;28;20198;-69
2023/05/17 01:41:41;;;;;;;9.40;3.43;;;8.60;99.90;;;;;;5028414;28;20200;-65
2023/05/17 01:44:44;;;;;;;11.70;3.90;;;8.60;99.90;;;;;;5028176;28;20207;-65
2023/05/17 01:47:17;;;;;;;9.20;3.03;;;8.60;99.90;;;;;;4984268;28;20220;-65
2023/05/17 01:49:48;;;;;;;6.60;3.13;;;8.70;99.90;;;;;;5021775;28;20215;-65
2023/05/17 01:52:44;;;;;;;11.70;3.77;;;8.70;99.90;;;;;;5024359;28;20753;-65
2023/05/17 01:55:21;;;;;;;7.53;2.90;;;8.70;99.90;;;;;;5031618;28;20725;-68
2023/05/17 01:57:51;;;;;;;7.90;3.67;;;8.80;99.90;;;;;;5038543;28;20396;-67
2023/05/17 02:00:17;;;;;;;11.73;3.93;;;8.70;99.90;;;;;;5028759;28;20497;-67
2023/05/17 02:02:44;;;;;;;4.97;2.80;;;8.70;99.90;;;;;;5031626;28;20200;-67
2023/05/17 02:05:09;;;;;;;9.63;3.63;;;8.70;99.90;;;;;;5027078;28;20294;-69
2023/05/17 02:07:35;;;;;;;5.10;3.00;;;8.70;99.90;;;;;;5023418;28;20298;-66
2023/05/17 02:10:01;;;;;;;6.37;3.17;;;8.70;99.90;;;;;;5020530;28;20207;-66
2023/05/17 02:12:26;;;;;;;9.93;3.73;;;8.70;99.90;;;;;;5019813;28;20674;-65
2023/05/17 02:14:52;;;;;;;7.00;3.43;;;8.60;99.90;;;;;;5019117;28;20198;-66
2023/05/17 02:17:17;;;;;;;6.87;3.07;;;8.60;99.90;;;;;;5021466;28;20203;-68
2023/05/17 02:19:43;;;;;;;7.50;3.30;;;8.50;99.90;;;;;;5021612;28;20191;-66
2023/05/17 02:22:08;;;;;;;12.87;3.47;;;8.50;99.90;;;;;;5020887;28;20365;-65
2023/05/17 02:24:34;;;;;;;7.33;3.67;;;8.60;99.90;;;;;;5020710;28;20614;-69
2023/05/17 02:26:59;;;;;;;11.47;3.37;;;8.70;99.90;;;;;;5021267;28;20212;-65
2023/05/17 02:29:25;;;;;;;7.17;4.07;;;8.90;99.90;;;;;;5020107;28;20602;-65
2023/05/17 02:31:50;;;;;;;9.80;3.20;;;8.80;99.90;;;;;;5020729;28;20223;-66
2023/05/17 02:34:16;;;;;;;7.23;3.43;;;8.90;99.90;;;;;;5023012;28;20211;-66
2023/05/17 02:36:43;;;;;;;7.07;2.40;;;8.90;99.90;;;;;;5023938;28;20213;-67
2023/05/17 02:39:08;;;;;;;9.10;3.80;;;9.00;99.90;;;;;;5022252;28;20261;-66
2023/05/17 02:41:34;;;;;;;11.33;4.77;;;8.90;99.90;;;;;;5018195;28;20197;-65
2023/05/17 02:44:00;;;;;;;6.83;3.50;;;8.90;99.90;;;;;;5021169;28;20226;-63
2023/05/17 02:46:25;;;;;;;9.30;3.73;;;9.00;99.90;;;;;;5020689;28;20295;-65
2023/05/17 02:48:51;;;;;;;13.10;3.93;;;9.00;99.90;;;;;;5020753;28;20216;-66
2023/05/17 02:51:16;;;;;;;7.77;3.80;;;9.00;99.90;;;;;;5020753;28;20218;-65
2023/05/17 02:53:42;;;;;;;14.00;3.90;;;9.00;99.90;;;;;;5019734;28;20204;-66
2023/05/17 02:56:07;;;;;;;8.87;3.30;;;8.90;99.90;;;;;;5030389;28;20229;-65
2023/05/17 02:58:33;;;;;;;11.67;3.77;;;8.90;99.90;;;;;;5037653;28;20221;-65
2023/05/17 03:00:58;;;;;;;9.77;4.33;;;8.90;99.90;;;;;;5037458;28;20336;-65
2023/05/17 03:03:24;;;;;;;12.23;3.63;;;8.90;99.90;;;;;;5037646;28;20199;-65
2023/05/17 03:05:50;;;;;;;8.83;3.53;;;8.80;99.90;;;;;;5037304;28;20195;-64
2023/05/17 03:08:15;;;;;;;7.03;4.17;;;8.90;99.90;;;;;;5036836;28;20196;-65
2023/05/17 03:10:41;;;;;;;7.80;3.57;;;8.90;99.90;;;;;;5035687;28;20264;-65
2023/05/17 03:13:06;;;;;;;4.37;3.00;;;8.90;99.90;;;;;;5028605;28;20211;-65
2023/05/17 03:15:31;;;;;;;8.53;3.73;;;9.00;99.90;;;;;;5027935;28;20225;-65
2023/05/17 03:17:57;;;;;;;5.57;3.23;;;9.10;99.90;;;;;;5034537;28;20278;-64
2023/05/17 03:20:23;;;;;;;12.10;3.87;;;9.10;99.90;;;;;;5031008;28;20231;-68
2023/05/17 03:22:48;;;;;;;11.00;3.87;;;9.10;99.90;;;;;;5034215;28;20237;-69
2023/05/17 03:25:14;;;;;;;15.10;3.87;;;9.10;99.90;;;;;;5037370;28;20206;-68
2023/05/17 03:27:40;;;;;;;9.20;4.93;;;9.00;99.90;;;;;;5030265;28;20231;-66
2023/05/17 03:30:06;;;;;;;6.90;3.50;;;9.00;99.90;;;;;;5038155;28;20691;-64
2023/05/17 03:32:31;;;;;;;8.53;3.60;;;9.00;99.90;;;;;;5041370;28;20557;-64
2023/05/17 03:34:57;;;;;;;9.00;4.20;;;9.00;99.90;;;;;;5041220;28;20210;-65
2023/05/17 03:37:23;;;;;;;10.43;4.27;;;9.00;99.90;;;;;;5038833;28;20286;-65
2023/05/17 03:39:48;;;;;;;6.43;3.97;;;9.00;99.90;;;;;;5041147;28;20565;-65
2023/05/17 03:42:14;;;;;;;8.73;3.47;;;9.00;99.90;;;;;;5031802;28;20208;-65
2023/05/17 03:44:40;;;;;;;11.57;5.50;;;9.10;99.90;;;;;;5037699;28;20858;-65
2023/05/17 03:47:05;;;;;;;8.80;3.43;;;9.10;99.90;;;;;;5033938;28;20787;-65
2023/05/17 03:49:31;;;;;;;12.17;4.50;;;9.10;99.90;;;;;;5040008;28;20283;-65
2023/05/17 03:51:57;;;;;;;12.73;4.33;;;9.10;99.90;;;;;;5040720;28;20215;-65
2023/05/17 03:54:22;;;;;;;7.13;3.63;;;9.00;99.90;;;;;;5040765;28;20202;-65
2023/05/17 03:56:49;;;;;;;7.50;3.63;;;8.90;99.90;;;;;;5040459;28;20681;-65
2023/05/17 03:59:15;;;;;;;8.43;4.50;;;8.90;99.90;;;;;;5032936;28;20200;-65
2023/05/17 04:01:41;;;;;;;8.67;4.27;;;8.90;99.90;;;;;;5039067;28;20195;-65
2023/05/17 04:04:07;;;;;;;11.07;5.43;;;9.00;99.90;;;;;;5038289;28;20256;-66
2023/05/17 04:06:33;;;;;;;12.70;5.60;;;9.00;99.90;;;;;;5030369;28;20297;-65
2023/05/17 04:08:58;;;;;;;19.57;5.10;;;9.00;99.90;;;;;;5022770;28;20222;-65
2023/05/17 04:11:27;;;;;;;10.07;5.57;;;8.90;99.90;;;;;;5036563;28;20513;-65
2023/05/17 04:13:53;;;;;;;12.53;4.73;;;8.90;99.90;;;;;;5034389;28;20291;-65
2023/05/17 04:16:19;;;;;;;7.90;3.50;;;8.90;99.90;;;;;;5038071;28;20195;-65
2023/05/17 04:18:46;;;;;;;10.40;4.00;;;9.00;99.90;;;;;;5040143;28;20191;-65
2023/05/17 04:21:11;;;;;;;10.10;3.70;;;9.10;99.90;;;;;;5040199;28;20337;-66
2023/05/17 04:23:37;;;;;;;8.73;4.47;;;9.10;99.90;;;;;;5039407;28;20285;-65
2023/05/17 04:26:04;;;;;;;7.27;4.50;;;9.10;99.90;;;;;;5039935;28;20208;-65
2023/05/17 04:28:30;;;;;;;9.33;4.33;;;9.00;99.90;;;;;;5037846;28;20207;-65
2023/05/17 04:30:56;;;;;;;10.17;4.50;;;9.00;99.90;;;;;;5040175;28;20698;-65
2023/05/17 04:33:22;;;;;;;14.73;4.77;;;9.10;99.90;;;;;;5037320;28;20704;-65
2023/05/17 04:35:49;;;;;;;10.63;4.90;;;9.10;99.90;;;;;;5032340;28;20195;-65
2023/05/17 04:38:15;;;;;;;15.80;4.53;;;9.10;99.90;;;;;;5029268;28;20266;-65
2023/05/17 04:40:41;;;;;;;13.30;4.53;;;9.00;99.90;;;;;;5026459;28;20207;-65
2023/05/17 04:43:06;;;;;;;9.83;4.23;;;9.00;99.90;;;;;;5030181;28;20638;-65
2023/05/17 04:45:32;;;;;;;13.80;5.87;;;8.90;99.90;;;;;;5030218;28;20303;-66
2023/05/17 04:47:58;;;;;;;7.77;4.37;;;9.00;99.90;;;;;;5030309;28;20764;-65
2023/05/17 04:50:24;;;;;;;10.43;4.07;;;9.00;99.90;;;;;;5030059;28;20685;-65
2023/05/17 04:52:50;;;;;;;13.33;4.50;;;8.90;99.90;;;;;;5030099;28;20556;-65
2023/05/17 04:55:16;;;;;;;6.57;4.10;;;8.90;99.90;;;;;;5029061;28;20359;-65
2023/05/17 04:57:41;;;;;;;9.70;4.97;;;8.90;99.90;;;;;;5029443;28;20202;-64
2023/05/17 05:00:08;;;;;;;13.57;5.63;;;8.90;99.90;;;;;;5028966;28;20209;-65
2023/05/17 05:02:34;;;;;;;9.97;4.50;;;9.00;99.90;;;;;;5029147;28;20197;-65
2023/05/17 05:05:00;;;;;;;7.67;4.13;;;9.00;99.90;;;;;;5029338;28;20701;-65
2023/05/17 05:07:26;;;;;;;10.07;3.97;;;9.00;99.90;;;;;;5028659;28;20196;-65
2023/05/17 05:09:52;;;;;;;11.37;4.07;;;9.00;99.90;;;;;;5032943;28;20211;-66
2023/05/17 05:12:18;;;;;;;8.60;4.37;;;9.00;99.90;;;;;;5028678;28;20220;-64
2023/05/17 05:14:43;;;;;;;11.67;4.43;;;9.10;99.90;;;;;;5027245;28;20630;-65
2023/05/17 05:17:09;;;;;;;10.93;5.17;;;9.10;99.90;;;;;;5029420;28;20195;-64
2023/05/17 05:19:34;;;;;;;15.83;4.37;;;9.10;99.90;;;;;;5029323;28;20657;-65
2023/05/17 05:22:00;;;;;;;8.73;4.43;;;9.20;99.90;;;;;;5026957;28;20752;-65
2023/05/17 05:24:25;;;;;;;12.97;4.40;;;9.30;99.90;;;;;;5028371;28;20759;-65
2023/05/17 05:26:51;;;;;;;10.77;5.03;;;9.30;99.90;;;;;;5028323;28;20211;-65
2023/05/17 05:29:17;;;;;;;14.00;5.13;;;9.40;99.90;;;;;;5031296;28;20639;-64
2023/05/17 05:31:43;;;;;;;12.57;5.27;;;9.40;99.90;;;;;;5028119;28;20716;-65
2023/05/17 05:34:10;;;;;;;13.33;5.07;;;9.50;99.90;;;;;;5031191;28;20635;-65
2023/05/17 05:36:35;;;;;;;8.77;4.13;;;9.40;99.90;;;;;;5038787;28;20201;-64
2023/05/17 05:39:01;;;;;;;14.83;4.00;;;9.50;99.90;;;;;;5021109;28;20784;-65
2023/05/17 05:41:26;;;;;;;10.97;4.53;;;9.50;99.90;;;;;;5036512;28;20210;-65
2023/05/17 05:43:52;;;;;;;10.20;4.30;;;9.50;99.90;;;;;;5038185;28;20709;-65
2023/05/17 05:46:17;;;;;;;8.83;4.60;;;9.60;99.90;;;;;;5036318;28;20195;-65
2023/05/17 05:48:43;;;;;;;12.67;4.07;;;9.60;99.90;;;;;;5029543;28;20340;-65
2023/05/17 05:51:09;;;;;;;10.80;4.03;;;9.70;99.90;;;;;;5037939;28;20219;-65
2023/05/17 05:53:35;;;;;;;8.30;2.80;;;9.80;99.90;;;;;;5038565;28;20627;-65
2023/05/17 05:56:01;;;;;;;13.10;3.37;;;9.80;99.90;;;;;;5028912;28;20232;-65
2023/05/17 05:58:28;;;;;;;13.57;3.43;;;9.80;99.90;;;;;;5029325;28;20275;-64
2023/05/17 06:00:54;;;;;;;7.73;2.47;;;9.90;99.90;;;;;;5031881;28;20195;-65
2023/05/17 06:03:19;;;;;;;12.50;2.80;;;9.90;99.90;;;;;;5033923;28;20380;-65
2023/05/17 06:05:45;;;;;;;9.33;3.50;;;10.00;99.90;;;;;;5037861;28;20203;-65
2023/05/17 06:08:10;;;;;;;8.07;2.17;;;10.00;99.90;;;;;;5038154;28;20200;-65
2023/05/17 06:10:36;;;;;;;6.50;3.23;;;10.00;99.90;;;;;;5036528;28;20224;-65
2023/05/17 06:13:02;;;;;;;10.53;2.80;;;10.00;99.90;;;;;;5038049;28;20294;-65
2023/05/17 06:15:27;;;;;;;12.17;2.13;;;10.00;99.90;;;;;;5038207;28;20535;-65
2023/05/17 06:17:53;;;;;;;13.97;3.63;;;9.90;99.90;;;;;;5027789;28;20246;-64
2023/05/17 06:20:18;;;;;;;9.53;2.70;;;9.90;99.90;;;;;;5028354;28;20200;-68
2023/05/17 06:22:44;;;;;;;9.37;3.13;;;9.90;99.90;;;;;;5022170;28;20206;-68
2023/05/17 06:25:10;;;;;;;6.37;2.17;;;10.10;99.90;;;;;;5027674;28;20200;-68
2023/05/17 06:27:36;;;;;;;8.37;2.50;;;10.20;99.90;;;;;;5028536;28;20195;-79
2023/05/17 06:30:03;;;;;;;10.87;2.60;;;10.30;99.90;;;;;;5030066;28;20236;-79
2023/05/17 06:32:29;;;;;;;9.20;2.83;;;10.30;99.90;;;;;;5026756;28;20225;-79
2023/05/17 06:34:55;;;;;;;7.20;2.27;;;10.20;99.90;;;;;;5028372;28;20207;-78
2023/05/17 06:37:20;;;;;;;17.60;3.53;;;10.10;99.90;;;;;;5027184;28;20736;-79
2023/05/17 06:39:46;;;;;;;11.73;3.33;;;10.00;99.90;;;;;;5027848;28;20560;-78
2023/05/17 06:42:11;;;;;;;8.90;3.10;;;10.00;99.90;;;;;;5025268;28;20746;-80
2023/05/17 06:44:37;;;;;;;12.30;3.00;;;10.00;99.90;;;;;;5028232;28;20201;-80
2023/05/17 06:47:03;;;;;;;5.77;2.30;;;10.00;99.90;;;;;;5027952;28;20203;-79
2023/05/17 06:49:28;;;;;;;8.17;1.93;;;10.10;99.90;;;;;;5026552;28;20892;-79
2023/05/17 06:52:02;;;;;;;8.87;2.20;;;10.10;99.90;;;;;;5032844;28;20290;-79
2023/05/17 06:54:30;;;;;;;10.53;2.40;;;10.20;99.90;;;;;;5037338;28;20230;-78
2023/05/17 06:57:02;;;;;;;9.00;2.27;;;10.40;99.90;;;;;;5036914;28;20952;-78
2023/05/17 06:59:28;;;;;;;5.67;2.40;;;10.50;99.90;;;;;;5036977;28;20243;-79
2023/05/17 07:01:54;;;;;;;5.93;2.30;;;10.50;99.90;;;;;;5037116;28;20750;-79
2023/05/17 07:04:19;;;;;;;12.93;3.00;;;10.50;99.90;;;;;;5033650;28;20214;-79
2023/05/17 07:06:45;;;;;;;7.60;2.30;;;10.70;99.90;;;;;;5022196;28;20198;-79
2023/05/17 07:09:11;;;;;;;6.07;3.67;;;11.00;99.90;;;;;;5036168;28;20236;-79
2023/05/17 07:11:37;;;;;;;8.60;2.90;;;11.20;99.90;;;;;;5023911;28;20688;-78
2023/05/17 07:14:02;;;;;;;7.73;2.83;;;11.10;99.90;;;;;;5033690;28;20261;-78
2023/05/17 07:16:28;;;;;;;5.23;2.63;;;10.80;99.90;;;;;;5038243;28;20198;-78
2023/05/17 07:18:53;;;;;;;11.27;2.87;;;10.60;99.90;;;;;;5037436;28;20678;-79
2023/05/17 07:21:19;;;;;;;11.67;2.53;;;10.60;99.90;;;;;;5037392;28;20207;-77
2023/05/17 07:23:44;;;;;;;8.97;3.90;;;10.60;99.90;;;;;;5029157;28;20195;-77
2023/05/17 07:26:10;;;;;;;15.87;3.50;;;10.50;99.90;;;;;;5026073;28;20212;-77
2023/05/17 07:28:35;;;;;;;9.97;2.93;;;10.50;99.90;;;;;;5024632;28;20258;-78
2023/05/17 07:31:01;;;;;;;8.97;2.60;;;10.60;99.90;;;;;;5027419;28;20879;-78
2023/05/17 07:33:27;;;;;;;7.90;3.20;;;10.70;99.90;;;;;;5022876;28;20593;-78
2023/05/17 07:35:52;;;;;;;8.17;2.50;;;10.70;99.90;;;;;;5027127;28;20294;-78
2023/05/17 07:38:18;;;;;;;6.17;2.83;;;10.80;99.90;;;;;;5035387;28;20198;-76
2023/05/17 07:40:43;;;;;;;9.83;3.03;;;10.90;99.90;;;;;;5037788;28;20195;-77
2023/05/17 07:43:09;;;;;;;10.97;3.10;;;10.70;99.50;;;;;;5037562;28;20211;-78
2023/05/17 07:45:34;;;;;;;3.93;2.03;;;10.70;99.30;;;;;;5024169;28;20218;-78
2023/05/17 07:48:00;;;;;;;9.57;2.87;;;10.80;98.90;;;;;;5038243;28;20203;-77
2023/05/17 07:50:26;;;;;;;7.27;2.47;;;11.00;98.70;;;;;;5023358;28;20790;-78
2023/05/17 07:52:52;;;;;;;5.43;2.00;;;11.00;98.40;;;;;;5026759;28;20204;-77
2023/05/17 07:55:18;;;;;;;7.07;3.33;;;11.20;99.00;;;;;;5029443;28;20197;-77
2023/05/17 07:57:46;;;;;;;10.73;2.70;;;11.30;99.30;;;;;;5024867;28;20648;-78
2023/05/17 08:00:12;;;;;;;6.37;2.87;;;11.30;98.20;;;;;;5028396;28;20667;-78
2023/05/17 08:02:39;;;;;;;8.47;2.63;;;11.10;97.70;;;;;;5025589;28;20282;-77
2023/05/17 08:05:04;;;;;;;6.00;2.23;;;11.10;97.90;;;;;;5030582;28;20209;-78
2023/05/17 08:07:30;;;;;;;11.03;2.57;;;11.00;97.90;;;;;;5026955;28;20205;-78
2023/05/17 08:09:55;;;;;;;12.93;2.77;;;11.10;97.40;;;;;;5025594;28;20287;-77
2023/05/17 08:12:21;;;;;;;6.07;2.63;;;11.10;97.70;;;;;;5029760;28;20210;-79
2023/05/17 08:14:46;;;;;;;11.97;2.30;;;11.20;97.80;;;;;;5028040;28;20219;-78
2023/05/17 08:17:12;;;;;;;6.53;2.33;;;11.30;97.20;;;;;;5031336;28;20235;-77
2023/05/17 08:19:37;;;;;;;6.37;2.23;;;11.30;97.20;;;;;;5035469;28;20781;-77
2023/05/17 08:22:03;;;;;;;7.73;2.63;;;11.30;97.30;;;;;;5033517;28;20201;-77
2023/05/17 08:24:29;;;;;;;5.57;2.00;;;11.30;97.30;;;;;;5039774;28;20251;-78
2023/05/17 08:26:55;;;;;;;5.37;2.10;;;11.30;97.10;;;;;;5040168;28;20340;-78
2023/05/17 08:29:20;;;;;;;8.17;2.47;;;11.40;97.10;;;;;;5039851;28;20237;-78
2023/05/17 08:31:46;;;;;;;7.93;2.33;;;11.40;95.70;;;;;;5039457;28;20223;-77
2023/05/17 08:34:11;;;;;;;6.80;1.97;;;11.50;94.80;;;;;;5027363;28;20374;-78
2023/05/17 08:36:37;;;;;;;9.67;2.63;;;11.40;94.30;;;;;;5040604;28;20532;-78
2023/05/17 08:39:03;;;;;;;12.67;3.30;;;11.30;94.70;;;;;;5038573;28;20242;-77
2023/05/17 08:41:28;;;;;;;7.10;3.00;;;11.30;95.30;;;;;;5040746;28;20197;-78
2023/05/17 08:43:57;;;;;;;7.23;2.23;;;11.30;95.80;;;;;;5030955;28;20205;-78
2023/05/17 08:46:25;;;;;;;7.83;2.43;;;11.40;96.00;;;;;;5033450;28;20297;-78
2023/05/17 08:48:52;;;;;;;9.27;2.00;;;11.40;96.10;;;;;;5030111;28;20213;-78
2023/05/17 08:51:19;;;;;;;9.33;2.63;;;11.40;96.00;;;;;;5029551;28;20683;-78
2023/05/17 08:53:45;;;;;;;7.50;2.73;;;11.30;96.10;;;;;;5027814;28;20201;-78
2023/05/17 08:56:13;;;;;;;12.53;2.23;;;11.40;95.00;;;;;;5030326;28;20284;-78
2023/05/17 08:58:42;;;;;;;6.67;2.57;;;11.40;94.50;;;;;;5032009;28;20211;-78
2023/05/17 09:01:08;;;;;;;7.33;1.90;;;11.60;94.10;;;;;;5029230;28;20572;-78
2023/05/17 09:03:38;;;;;;;5.87;2.37;;;11.60;93.30;;;;;;5031294;28;20231;-78
2023/05/17 09:06:04;;;;;;;7.87;2.57;;;11.60;92.50;;;;;;5030719;28;20214;-80
2023/05/17 09:08:31;;;;;;;7.67;2.70;;;11.70;93.10;;;;;;5033232;28;20651;-78
2023/05/17 09:10:58;;;;;;;8.63;2.60;;;11.90;93.30;;;;;;5031177;28;20229;-79
2023/05/17 09:13:24;;;;;;;8.43;2.47;;;11.90;93.70;;;;;;5029160;28;20236;-77
2023/05/17 09:15:50;;;;;;;11.47;4.37;;;11.80;93.50;;;;;;5032094;28;20413;-77
2023/05/17 09:18:16;;;;;;;9.73;4.47;;;11.90;93.40;;;;;;5030662;28;20206;-77
2023/05/17 09:20:48;;;;;;;5.90;2.07;;;11.90;93.40;;;;;;5030938;28;20200;-78
2023/05/17 09:23:13;;;;;;;10.80;3.17;;;11.90;92.30;;;;;;5030250;28;20261;-77
2023/05/17 09:25:46;;;;;;;10.57;2.50;;;12.00;91.60;;;;;;5031299;28;20199;-77
2023/05/17 09:28:12;;;;;;;11.27;3.80;;;12.00;92.50;;;;;;5032168;28;20206;-77
2023/05/17 09:30:38;;;;;;;6.73;2.40;;;12.10;92.70;;;;;;5028244;28;20238;-77
2023/05/17 09:33:08;;;;;;;7.17;2.33;;;12.10;91.80;;;;;;5030543;28;20559;-77
2023/05/17 09:35:35;;;;;;;9.20;2.73;;;12.20;92.00;;;;;;5022843;28;20265;-77
2023/05/17 09:38:08;;;;;;;7.73;2.07;;;12.20;91.90;;;;;;5027044;28;20319;-78
2023/05/17 09:40:38;;;;;;;2.80;1.70;;;12.20;92.30;;;;;;5029166;28;20229;-78
2023/05/17 09:43:04;;;;;;;12.37;2.23;;;12.40;91.30;;;;;;5027809;28;20204;-78
2023/05/17 09:45:33;;;;;;;6.27;1.80;;;12.60;90.00;;;;;;5030685;28;20201;-78
2023/05/17 09:48:29;;;;;;;9.57;2.27;;;12.50;90.00;;;;;;5030726;28;20271;-79
2023/05/17 09:50:55;;;;;;;6.83;2.83;;;12.60;90.30;;;;;;5026004;28;20229;-79
2023/05/17 09:53:31;;;;;;;5.03;2.33;;;12.70;90.00;;;;;;5029687;28;20326;-78
2023/05/17 09:55:59;;;;;;;8.00;2.40;;;12.70;91.00;;;;;;5028420;28;20200;-77
2023/05/17 09:58:27;;;;;;;9.47;2.67;;;12.80;90.40;;;;;;5030556;28;20191;-78
2023/05/17 10:00:58;;;;;;;8.70;1.77;;;12.80;90.60;;;;;;5028316;28;20206;-76
2023/05/17 10:03:28;;;;;;;7.37;2.03;;;12.80;86.60;;;;;;5032640;28;20206;-77
2023/05/17 10:05:54;;;;;;;8.43;3.10;;;12.90;86.80;;;;;;5026654;28;20227;-77
2023/05/17 10:08:26;;;;;;;5.33;2.37;;;13.00;87.10;;;;;;5024977;28;20244;-77
2023/05/17 10:10:55;;;;;;;5.67;1.60;;;13.00;86.20;;;;;;5026458;28;20244;-79
2023/05/17 10:13:24;;;;;;;7.50;1.90;;;13.10;86.20;;;;;;5029395;28;20574;-78
2023/05/17 10:15:50;;;;;;;5.53;2.07;;;13.20;87.30;;;;;;5037599;28;20205;-71
2023/05/17 10:18:16;;;;;;;8.80;2.27;;;13.40;86.70;;;;;;5030785;28;20199;-71
2023/05/17 10:20:42;;;;;;;7.67;2.17;;;13.60;87.70;;;;;;5026993;28;20290;-70
2023/05/17 10:23:10;;;;;;;8.13;2.80;;;13.50;88.30;;;;;;5030807;28;20284;-70
2023/05/17 10:25:36;;;;;;;6.77;1.93;;;13.60;90.10;;;;;;5024988;28;20344;-69
2023/05/17 10:28:05;;;;;;;4.97;1.83;;;13.70;86.90;;;;;;5027735;28;20199;-68
2023/05/17 10:30:32;;;;;;;6.20;2.17;;;13.70;89.40;;;;;;5025277;28;20260;-68
2023/05/17 10:32:58;;;;;;;8.30;2.53;;;13.80;86.70;;;;;;5026302;28;20203;-69
2023/05/17 10:35:26;;;;;;;5.63;1.80;;;13.80;86.20;;;;;;5025708;28;20216;-69
2023/05/17 10:37:52;;;;;;;8.90;2.20;;;13.80;87.50;;;;;;5015100;28;20203;-70
2023/05/17 10:40:19;;;;;;;5.67;2.23;;;13.80;88.40;;;;;;5017662;28;20205;-74
2023/05/17 10:42:52;;;;;;;7.63;1.60;;;13.80;85.00;;;;;;5027850;28;20692;-70
2023/05/17 10:45:24;;;;;;;7.80;3.03;;;13.70;83.30;;;;;;5027231;28;20271;-69
2023/05/17 10:47:51;;;;;;;7.17;1.90;;;14.00;84.10;;;;;;5024105;28;20275;-68
2023/05/17 10:50:22;;;;;;;4.63;1.70;;;14.00;80.80;;;;;;5026467;28;20231;-68
2023/05/17 10:52:49;;;;;;;4.30;1.67;;;14.10;80.50;;;;;;5026438;28;20290;-70
2023/05/17 10:55:23;;;;;;;7.03;1.87;;;14.10;85.20;;;;;;5026693;28;20257;-68
2023/05/17 10:58:19;;;;;;;12.93;2.10;;;14.10;84.60;;;;;;5018222;28;20195;-69
2023/05/17 11:00:47;;;;;;;5.93;1.90;;;14.00;82.70;;;;;;5021432;28;20693;-71
2023/05/17 11:03:17;;;;;;;5.27;2.30;;;14.20;82.40;;;;;;5026685;28;20203;-72
2023/05/17 11:06:09;;;;;;;10.63;2.03;;;14.30;82.10;;;;;;5021433;28;20676;-69
2023/05/17 11:08:35;;;;;;;8.07;2.03;;;14.50;83.60;;;;;;5012117;28;20211;-68
2023/05/17 11:11:12;;;;;;;5.80;1.80;;;14.70;82.20;;;;;;5018531;28;20215;-68
2023/05/17 11:13:53;;;;;;;7.33;1.93;;;14.70;80.10;;;;;;5017546;28;20703;-69
2023/05/17 11:16:26;;;;;;;8.17;2.53;;;14.80;79.30;;;;;;5029358;28;20201;-69
2023/05/17 11:18:53;;;;;;;8.20;2.20;;;14.90;81.00;;;;;;5027356;28;20622;-72
2023/05/17 11:21:21;;;;;;;5.57;2.03;;;14.90;78.50;;;;;;5025358;28;20728;-70
2023/05/17 11:23:48;;;;;;;7.37;1.83;;;15.30;82.60;;;;;;5025732;28;20215;-69
2023/05/17 11:26:39;;;;;;;6.73;2.60;;;15.60;80.60;;;;;;5015903;28;20192;-68
2023/05/17 11:29:09;;;;;;;7.07;2.07;;;16.00;76.90;;;;;;5014977;28;20980;-69
2023/05/17 11:31:36;;;;;;;4.27;2.00;;;16.10;73.80;;;;;;5024102;28;20225;-70
2023/05/17 11:34:03;;;;;;;5.40;2.27;;;16.20;76.50;;;;;;5018202;28;20218;-69
2023/05/17 11:36:28;;;;;;;8.50;1.77;;;16.40;76.00;;;;;;5025630;28;20240;-68
2023/05/17 11:39:11;;;;;;;3.77;1.50;;;16.40;75.50;;;;;;5027177;28;20195;-69
2023/05/17 11:41:41;;;;;;;5.50;2.30;;;16.80;76.50;;;;;;5024107;28;20666;-68
2023/05/17 11:44:08;;;;;;;4.57;2.23;;;17.00;69.70;;;;;;5026073;28;20364;-68
2023/05/17 11:46:35;;;;;;;10.47;2.20;;;17.10;72.00;;;;;;5018478;28;20223;-72
2023/05/17 11:49:01;;;;;;;5.60;2.07;;;17.00;69.60;;;;;;5025915;28;20211;-72
2023/05/17 11:51:30;;;;;;;3.60;1.60;;;16.80;66.10;;;;;;5029840;28;20238;-72
2023/05/17 11:53:57;;;;;;;6.73;1.67;;;16.80;70.20;;;;;;5031345;28;20200;-72
2023/05/17 11:56:23;;;;;;;9.03;2.40;;;16.80;68.70;;;;;;5023938;28;20561;-71
2023/05/17 11:58:53;;;;;;;6.37;2.53;;;16.90;69.00;;;;;;5029794;28;20223;-71
2023/05/17 12:01:18;;;;;;;8.40;1.73;;;17.10;67.30;;;;;;5029891;28;20685;-71
2023/05/17 12:03:46;;;;;;;5.97;2.00;;;17.10;68.40;;;;;;5029688;28;20200;-71
2023/05/17 12:06:13;;;;;;;6.83;2.20;;;17.30;69.20;;;;;;5028818;28;20296;-70
2023/05/17 12:08:42;;;;;;;4.20;2.63;;;17.40;68.20;;;;;;5021658;28;20251;-70
2023/05/17 12:11:12;;;;;;;3.93;2.13;;;17.60;66.10;;;;;;5027775;28;20737;-71
2023/05/17 12:13:40;;;;;;;5.80;2.53;;;17.50;64.90;;;;;;5028899;28;20196;-70
2023/05/17 12:16:09;;;;;;;5.47;1.87;;;17.50;68.30;;;;;;5029911;28;20233;-71
2023/05/17 12:18:39;;;;;;;6.37;1.83;;;17.50;70.60;;;;;;5025959;28;20183;-71
2023/05/17 12:21:06;;;;;;;6.63;2.20;;;17.60;62.60;;;;;;5028044;28;20203;-71
2023/05/17 12:23:37;;;;;;;8.17;2.23;;;17.90;67.70;;;;;;5025894;28;20728;-77
2023/05/17 12:26:13;;;;;;;6.33;2.13;;;17.90;67.10;;;;;;5028023;28;20221;-72
2023/05/17 12:28:43;;;;;;;8.53;2.40;;;17.80;66.10;;;;;;5023720;28;20193;-71
2023/05/17 12:31:12;;;;;;;5.23;2.67;;;17.70;65.40;;;;;;5031383;28;20217;-72
2023/05/17 12:33:40;;;;;;;7.07;2.13;;;17.60;63.70;;;;;;5026692;28;20201;-71
2023/05/17 12:36:08;;;;;;;6.70;2.43;;;17.80;64.00;;;;;;5027880;28;20246;-74
2023/05/17 12:38:34;;;;;;;6.10;2.50;;;17.80;60.30;;;;;;5028152;28;20195;-74
2023/05/17 12:41:02;;;;;;;6.37;2.57;;;17.80;61.40;;;;;;5029143;28;20658;-73
2023/05/17 12:43:29;;;;;;;12.03;7.33;;;18.10;62.30;;;;;;5027819;28;20195;-72
2023/05/17 12:46:04;;;;;;;2.83;2.03;;;18.00;59.00;;;;;;5030209;28;20203;-75
2023/05/17 12:48:31;;;;;;;5.67;1.97;;;18.00;58.00;;;;;;5030402;28;20197;-76
2023/05/17 12:51:04;;;;;;;3.70;1.93;;;18.50;60.20;;;;;;5028170;28;20227;-72